• Join FlightAware (Why Join?)
  • Login
  • US Flag 
08:03PM EDT


 

Airport Tracker/Info


-or-


 

Live Flight TrackerFlight Track Log ✈ UAL582 ✈ 09-Sep-2013 ✈ CYYZ - KORD

Flight Track Log - Related Links

Times and Time Zones

All times are in EDT time to prevent confusion due to time zone crossing. See the UAL582 flight status page for this flight to view local times or setup timezone preferences in your user account.

Time Position Orientation Groundspeed Altitude Reporting Facility
EDT Latitude Longitude Course Direction KTS MPH feet Rate Location/Type
05:15PM 43.6500 -79.6167 308° West 170 196 1,300  Level Toronto Center
05:16PM 43.6167 -79.6500 216° Southwest 200 230 3,600 2,520 Climbing Toronto Center
05:17PM 43.5833 -79.7500 245° Southwest 250 288 6,400 3,420 Climbing Toronto Center
05:18PM 43.6145 -80.0091 277° West  Level Estimated
05:18PM 43.6000 -79.8333 285° West 270 311 10,500  Level Toronto Center
05:19PM 43.5933 -80.1350 277° West  Level Estimated
05:19PM 43.6167 -79.9500 281° West 330 380 12,500  Level Toronto Center
05:20PM 43.5720 -80.2609 270° West  Level Estimated
05:20PM 43.6500 -80.1000 287° West 390 449 15,200  Level Toronto Center
05:21PM 43.6293 -80.3633 308° West  Level FlightAware Approximate
05:21PM 43.6833 -80.2333 289° West 410 472 18,100  Level Toronto Center
05:22PM 43.7167 -80.4000 286° West 420 483 21,400 2,640 Climbing Toronto Center
05:23PM 43.7333 -80.5500 279° West 430 495 23,400 2,220 Climbing Toronto Center
05:24PM 43.7000 -80.7333 256° West 460 529 25,900 2,100 Climbing Toronto Center
05:25PM 43.6500 -80.9000 248° West 460 529 27,700 1,260 Climbing Toronto Center
05:26PM 43.6167 -81.0667 255° West 450 518 28,500 960 Climbing Toronto Center
05:27PM 43.5833 -81.2500 256° West 450 518 29,700 1,140 Climbing Toronto Center
05:28PM 43.5500 -81.3833 251° West 450 518 30,800 1,200 Climbing Toronto Center
05:29PM 43.5167 -81.5667 256° West 450 518 32,100 1,500 Climbing Toronto Center
05:30PM 43.4500 -81.7000 235° Southwest 440 506 33,800 1,260 Climbing Toronto Center
05:31PM 43.3333 -81.7833 207° Southwest 440 506 34,700 1,200 Climbing Toronto Center
05:32PM 43.2333 -81.8500 206° Southwest 440 506 36,200 1,020 Climbing Toronto Center
05:33PM 43.1167 -81.9333 208° Southwest 440 506 36,800 600 Climbing Toronto Center
05:34PM 43.0167 -82.0333 216° Southwest 440 506 37,400 480 Climbing Toronto Center
05:35PM 42.9500 -82.1667 236° Southwest 430 495 37,800 300 Climbing Toronto Center
05:36PM 42.9500 -82.3167 270° West 420 483 38,000 60 Climbing Toronto Center
05:37PM 42.9667 -82.4833 278° West 430 495 38,000  Level Toronto Center
05:38PM 42.9500 -82.6667 263° West 430 495 38,000  Level Toronto Center
05:39PM 42.9500 -82.8167 270° West 430 495 38,000 -300 Level Toronto Center
05:40PM 42.9500 -82.9833 270° West 430 495 37,500 -720 Descending Toronto Center
05:42PM 42.9692 -83.1539 279° West 437 503 36,600 -900 Descending Cleveland Center
05:43PM 42.9697 -83.3100 270° West 437 503 35,700 -960 Descending Cleveland Center
05:44PM 42.9681 -83.4717 269° West 437 503 34,700 -1,020 Descending Cleveland Center
05:45PM 42.9658 -83.6361 269° West 432 497 33,700 -960 Descending Cleveland Center
05:46PM 42.9636 -83.7950 269° West 432 497 32,800 -900 Descending Cleveland Center
05:47PM 42.9467 -83.9531 262° West 432 497 32,000 -420 Descending Cleveland Center
05:48PM 42.9314 -84.1167 263° West 432 497 32,000  Level Cleveland Center
05:49PM 42.9139 -84.2744 261° West 432 497 32,000  Level Cleveland Center
05:49PM 42.8992 -84.4397 263° West 432 497 32,000  Level Chicago Center
05:51PM 42.8822 -84.6011 262° West 431 496 32,000  Level Chicago Center
05:52PM 42.8653 -84.7619 262° West 430 495 32,000  Level Chicago Center
05:53PM 42.8489 -84.9250 262° West 433 498 32,000 -120 Level Chicago Center
05:54PM 42.8306 -85.0869 261° West 434 499 31,800 -1,680 Descending Chicago Center
05:55PM 42.8103 -85.2803 262° West 431 496 28,600 -2,820 Descending Chicago Center
05:56PM 42.7917 -85.4425 261° West 432 497 26,000 -1,860 Descending Chicago Center
05:57PM 42.7683 -85.5997 259° West 426 490 24,800 -1,140 Descending Chicago Center
05:58PM 42.7403 -85.7553 256° West 422 486 23,700 -1,080 Descending Chicago Center
05:59PM 42.7122 -85.9075 256° West 415 478 22,600 -1,080 Descending Chicago Center
06:00PM 42.6850 -86.0572 256° West 407 468 21,500 -1,020 Descending Chicago Center
06:01PM 42.6578 -86.2050 256° West 402 463 20,500 -1,500 Descending Chicago Center
06:02PM 42.6264 -86.3747 256° West 387 445 18,400 -2,040 Descending Chicago Center
06:03PM 42.6014 -86.5125 256° West 379 436 16,300 -2,040 Descending Chicago Center
06:04PM 42.5767 -86.6414 255° West 359 413 14,200 -1,260 Descending Chicago Center
06:05PM 42.5503 -86.7706 255° West 357 411 13,800 -1,320 Descending Chicago Center
06:06PM 42.5147 -86.8939 249° West 353 406 11,500 -1,800 Descending Chicago Center
06:07PM 42.4833 -87.0133 250° West 341 392 10,100 -1,260 Descending Chicago Center
06:08PM 42.4503 -87.1328 249° West 284 327 9,000 -600 Descending Chicago Center
06:09PM 42.4219 -87.2289 248° West 277 319 8,900 -780 Descending Chicago Center
06:10PM 42.3903 -87.3219 245° Southwest 274 315 7,400 -960 Descending Chicago Center
06:11PM 42.3583 -87.4231 247° West 272 313 7,000 -240 Descending Chicago Center
06:12PM 42.3275 -87.5156 246° West 271 312 7,000 -420 Level Chicago Center
06:13PM 42.2753 -87.5886 226° Southwest 278 320 6,200 -960 Descending Chicago Center
06:14PM 42.2189 -87.6522 220° Southwest 269 310 5,000 -840 Descending Chicago Center
06:15PM 42.1536 -87.7258 220° Southwest 258 297 4,500 -840 Descending Chicago Center
06:16PM 42.1167 -87.7667 219° Southwest 216 249 3,400 -1,080 Descending Chicago TRACON
06:17PM 42.0667 -87.8167 217° Southwest 188 216 2,500 -900 Descending Chicago TRACON
06:18PM 42.0333 -87.8500 217° Southwest 142 163 1,700 -780 Descending Chicago TRACON
06:19PM 42.0167 -87.8833 236° Southwest 131 151 1,000 -720 Descending Chicago TRACON